Time;durP1;ratioP1;P1;durP2;ratioP2;P2;SDS_P1;SDS_P2;PMS_P1;PMS_P2;Temp;Humidity;BMP_temperature;BMP_pressure;BME280_temperature;BME280_humidity;BME280_pressure;Samples;Min_cycle;Max_cycle;Signal;HPM_P1;HPM_P2
2023/12/19 00:01:12;;;;;;;3.67;2.53;;;;;;;4.53;nan;-19205.13;5031495;28;20647;-62
2023/12/19 00:03:38;;;;;;;2.90;1.43;;;;;;;4.89;nan;-18896.41;5031766;28;20202;-64
2023/12/19 00:06:03;;;;;;;1.47;1.40;;;;;;;4.66;nan;-18891.75;5031864;28;20174;-63
2023/12/19 00:08:29;;;;;;;1.20;1.20;;;;;;;4.73;nan;-18260.94;5031700;28;20175;-64
2023/12/19 00:10:54;;;;;;;1.50;1.40;;;;;;;4.72;nan;-16995.97;5031510;28;20175;-64
2023/12/19 00:13:20;;;;;;;1.17;1.17;;;;;;;4.75;nan;-16680.16;5030595;28;20178;-65
2023/12/19 00:15:45;;;;;;;1.20;1.20;;;;;;;5.03;nan;-16368.16;5031615;28;20169;-64
2023/12/19 00:18:10;;;;;;;1.40;1.30;;;;;;;5.11;nan;-16052.88;5031328;28;20210;-63
2023/12/19 00:20:36;;;;;;;2.70;1.97;;;;;;;5.07;nan;-15735.75;5031210;28;20179;-64
2023/12/19 00:23:01;;;;;;;1.27;1.23;;;;;;;4.88;nan;-16049.41;5031420;28;20198;-64
2023/12/19 00:25:29;;;;;;;1.57;1.47;;;;;;;4.88;nan;-16998.69;5029964;28;20210;-65
2023/12/19 00:27:55;;;;;;;2.33;1.93;;;;;;;4.73;nan;-17628.56;5030918;28;20701;-62
2023/12/19 00:30:20;;;;;;;1.20;1.20;;;;;;;4.49;nan;-17940.28;5031236;28;20219;-63
2023/12/19 00:32:46;;;;;;;2.17;1.97;;;;;;;4.78;nan;-18261.97;5031495;28;20189;-64
2023/12/19 00:35:11;;;;;;;1.70;1.60;;;;;;;4.57;nan;-18573.94;5031044;28;20630;-62
2023/12/19 00:37:37;;;;;;;2.03;1.93;;;;;;;4.56;nan;-18573.72;5031183;28;20622;-64
2023/12/19 00:40:03;;;;;;;1.47;1.37;;;;;;;4.78;nan;-18894.28;5030000;28;20179;-64
2023/12/19 00:42:28;;;;;;;1.10;1.10;;;;;;;4.70;nan;-18892.66;5030888;28;20305;-66
2023/12/19 00:44:54;;;;;;;2.80;1.97;;;;;;;4.74;nan;-18893.47;5031363;28;20262;-63
2023/12/19 00:47:19;;;;;;;1.70;1.60;;;;;;;4.33;nan;-18885.22;5030987;28;20182;-64
2023/12/19 00:49:45;;;;;;;1.30;1.30;;;;;;;4.37;nan;-19201.91;5031140;28;20599;-64
2023/12/19 00:52:10;;;;;;;1.63;1.53;;;;;;;4.25;nan;-19199.44;5029930;28;20680;-63
2023/12/19 00:54:35;;;;;;;2.20;2.00;;;;;;;4.16;nan;-19513.44;5031129;28;20230;-66
2023/12/19 00:57:01;;;;;;;1.37;1.33;;;;;;;4.32;nan;-19516.81;5030897;28;20209;-66
2023/12/19 00:59:26;;;;;;;1.70;1.60;;;;;;;4.27;nan;-19515.75;5030916;28;20183;-63
2023/12/19 01:01:52;;;;;;;2.07;1.97;;;;;;;4.24;nan;-19830.91;5031334;28;20284;-64
2023/12/19 01:04:19;;;;;;;1.50;1.40;;;;;;;4.09;nan;-19827.53;5030979;28;20230;-65
2023/12/19 01:06:45;;;;;;;1.93;1.80;;;;;;;4.25;nan;-19831.00;5030962;28;20226;-63
2023/12/19 01:09:10;;;;;;;1.60;1.50;;;;;;;4.17;nan;-20144.97;5030644;28;20164;-64
2023/12/19 01:11:36;;;;;;;1.60;1.50;;;;;;;3.82;nan;-19821.78;5030821;28;20643;-66
2023/12/19 01:14:01;;;;;;;2.27;1.57;;;;;;;3.83;nan;-19822.09;5030848;28;20569;-65
2023/12/19 01:16:28;;;;;;;1.67;1.57;;;;;;;3.93;nan;-20139.75;5031070;28;20186;-65
2023/12/19 01:18:54;;;;;;;1.30;1.30;;;;;;;3.72;nan;-20135.19;5030744;28;20175;-64
2023/12/19 01:21:19;;;;;;;2.03;1.77;;;;;;;3.77;nan;-20451.75;5030767;28;20314;-66
2023/12/19 01:23:45;;;;;;;5.73;2.37;;;;;;;3.77;nan;-20136.28;5031250;28;20256;-63
2023/12/19 01:26:10;;;;;;;1.20;1.20;;;;;;;3.51;nan;-20130.50;5033113;28;20176;-64
2023/12/19 01:28:37;;;;;;;1.70;1.60;;;;;;;3.70;nan;-20450.03;5033353;28;20288;-66
2023/12/19 01:31:03;;;;;;;1.20;1.20;;;;;;;3.61;nan;-20448.09;5034830;28;20214;-67
2023/12/19 01:33:30;;;;;;;1.10;1.10;;;;;;;3.44;nan;-20759.63;5034374;28;20199;-66
2023/12/19 01:35:55;;;;;;;1.70;1.60;;;;;;;3.18;nan;-20753.44;5035048;28;20194;-65
2023/12/19 01:38:20;;;;;;;1.77;1.67;;;;;;;3.23;nan;-20754.59;5034633;28;20179;-67
2023/12/19 01:40:46;;;;;;;1.47;1.37;;;;;;;3.19;nan;-20753.78;5034295;28;20253;-66
2023/12/19 01:43:21;;;;;;;1.50;1.40;;;;;;;3.22;nan;-20439.34;5033111;28;21085;-65
2023/12/19 01:45:48;;;;;;;2.67;2.37;;;;;;;2.89;nan;-20746.78;5034138;28;20597;-63
2023/12/19 01:48:15;;;;;;;1.27;1.27;;;;;;;3.22;nan;-20754.47;5034282;28;20639;-69
2023/12/19 01:50:41;;;;;;;1.80;1.60;;;;;;;3.31;nan;-20756.47;5034104;28;20210;-63
2023/12/19 01:53:08;;;;;;;3.43;2.03;;;;;;;2.82;nan;-20745.16;5033949;28;20187;-65
2023/12/19 01:55:33;;;;;;;1.90;1.80;;;;;;;2.93;nan;-20747.84;5033502;28;20171;-66
2023/12/19 01:58:00;;;;;;;1.53;1.43;;;;;;;3.07;nan;-20750.97;5033804;28;20605;-64
2023/12/19 02:00:25;;;;;;;2.00;1.90;;;;;;;2.98;nan;-20748.88;5033600;28;20189;-66
2023/12/19 02:02:52;;;;;;;1.20;1.20;;;;;;;3.04;nan;-20750.41;5032315;28;20326;-62
2023/12/19 02:05:18;;;;;;;1.50;1.40;;;;;;;3.17;nan;-21068.28;5033722;28;20707;-64
2023/12/19 02:07:44;;;;;;;4.90;1.80;;;;;;;3.19;nan;-21068.88;5033647;28;20194;-64
2023/12/19 02:10:10;;;;;;;1.30;1.30;;;;;;;3.04;nan;-21065.44;5033325;28;20652;-65
2023/12/19 02:12:36;;;;;;;2.63;2.43;;;;;;;3.11;nan;-20751.91;5033621;28;20385;-63
2023/12/19 02:15:04;;;;;;;1.20;1.20;;;;;;;3.15;nan;-21067.81;5033296;28;20175;-64
2023/12/19 02:17:29;;;;;;;1.47;1.37;;;;;;;3.23;nan;-21069.72;5032648;28;20597;-65
2023/12/19 02:19:55;;;;;;;1.20;1.20;;;;;;;3.33;nan;-20757.03;5031734;28;20391;-65
2023/12/19 02:22:21;;;;;;;2.50;1.40;;;;;;;3.27;nan;-20755.53;5031372;28;20203;-64
2023/12/19 02:24:46;;;;;;;1.10;1.10;;;;;;;3.39;nan;-20443.09;5031592;28;20199;-63
2023/12/19 02:27:13;;;;;;;1.20;1.20;;;;;;;3.45;nan;-20129.28;5031954;28;20176;-63
2023/12/19 02:29:39;;;;;;;1.37;1.37;;;;;;;3.40;nan;-20443.44;5031564;28;20176;-62
2023/12/19 02:32:04;;;;;;;1.83;1.73;;;;;;;3.34;nan;-20441.94;5031261;28;20823;-64
2023/12/19 02:34:30;;;;;;;1.63;1.53;;;;;;;2.96;nan;-20433.41;5033360;28;20285;-66
2023/12/19 02:36:56;;;;;;;1.50;1.40;;;;;;;3.00;nan;-20434.44;5031258;28;20168;-64
2023/12/19 02:39:22;;;;;;;1.20;1.20;;;;;;;2.71;nan;-20742.69;5033301;28;20211;-64
2023/12/19 02:41:47;;;;;;;1.70;1.60;;;;;;;2.95;nan;-20748.19;5033226;28;20528;-62
2023/12/19 02:44:13;;;;;;;1.20;1.20;;;;;;;2.87;nan;-20746.44;5032952;28;20245;-64
2023/12/19 02:46:38;;;;;;;1.10;1.10;;;;;;;2.99;nan;-20749.13;5033308;28;20272;-66
2023/12/19 02:49:04;;;;;;;1.83;1.73;;;;;;;2.66;nan;-20741.53;5032985;28;20202;-64
2023/12/19 02:51:30;;;;;;;1.50;1.40;;;;;;;2.76;nan;-21058.63;5033074;28;20180;-64
2023/12/19 02:53:56;;;;;;;1.37;1.27;;;;;;;2.86;nan;-20746.09;5033057;28;20294;-63
2023/12/19 02:56:22;;;;;;;1.60;1.50;;;;;;;2.69;nan;-20742.22;5033039;28;20183;-65
2023/12/19 02:58:47;;;;;;;1.37;1.37;;;;;;;2.72;nan;-21057.78;5032813;28;20651;-64
2023/12/19 03:01:12;;;;;;;1.70;1.60;;;;;;;2.88;nan;-21061.50;5033066;28;20563;-64
2023/12/19 03:03:42;;;;;;;1.27;1.23;;;;;;;2.81;nan;-21059.81;5032975;28;20250;-66
2023/12/19 03:06:08;;;;;;;1.50;1.40;;;;;;;3.00;nan;-21064.34;5032735;28;20179;-64
2023/12/19 03:08:37;;;;;;;1.30;1.30;;;;;;;3.02;nan;-20749.81;5033114;28;20179;-64
2023/12/19 03:11:02;;;;;;;1.60;1.50;;;;;;;3.50;nan;-19815.03;5032840;28;20180;-63
2023/12/19 03:13:28;;;;;;;1.37;1.27;;;;;;;3.35;nan;-19811.78;5032893;28;20187;-64
2023/12/19 03:15:54;;;;;;;1.20;1.20;;;;;;;3.17;nan;-19807.84;5032636;28;20237;-68
2023/12/19 03:18:24;;;;;;;1.73;1.40;;;;;;;3.55;nan;-19500.72;5033153;28;20167;-66
2023/12/19 03:20:53;;;;;;;1.80;1.53;;;;;;;3.55;nan;-19500.72;5033069;28;20182;-64
2023/12/19 03:23:19;;;;;;;1.40;1.30;;;;;;;3.23;nan;-19178.63;5032761;28;20207;-65
2023/12/19 03:25:45;;;;;;;1.53;1.43;;;;;;;3.19;nan;-19177.69;5032833;28;20514;-64
2023/12/19 03:28:10;;;;;;;1.60;1.50;;;;;;;3.44;nan;-19182.97;5032331;28;20267;-65
2023/12/19 03:30:36;;;;;;;1.30;1.30;;;;;;;3.10;nan;-19806.31;5032438;28;20298;-63
2023/12/19 03:33:01;;;;;;;1.47;1.37;;;;;;;3.35;nan;-19811.78;5032199;28;20191;-65
2023/12/19 03:35:27;;;;;;;1.63;1.53;;;;;;;3.34;nan;-19180.91;5032344;28;20183;-66
2023/12/19 03:37:52;;;;;;;1.13;1.13;;;;;;;3.06;nan;-19490.41;5032281;28;20294;-64
2023/12/19 03:40:17;;;;;;;1.50;1.40;;;;;;;3.22;nan;-19493.69;5030699;28;20269;-66
2023/12/19 03:42:43;;;;;;;1.50;1.40;;;;;;;3.36;nan;-19181.22;5032485;28;20183;-65
2023/12/19 03:45:08;;;;;;;1.57;1.47;;;;;;;3.40;nan;-17920.38;5032001;28;20179;-64
2023/12/19 03:47:34;;;;;;;1.40;1.30;;;;;;;3.69;nan;-17609.94;5030730;28;20220;-64
2023/12/19 03:50:00;;;;;;;1.03;1.03;;;;;;;3.71;nan;-17926.06;5031704;28;20191;-63
2023/12/19 03:52:25;;;;;;;1.23;1.23;;;;;;;3.38;nan;-18235.38;5030735;28;20175;-64
2023/12/19 03:54:50;;;;;;;1.10;1.10;;;;;;;3.55;nan;-18554.28;5032063;28;20167;-66
2023/12/19 03:57:16;;;;;;;1.40;1.20;;;;;;;3.59;nan;-18870.41;5031924;28;20171;-67
2023/12/19 03:59:43;;;;;;;1.50;1.40;;;;;;;3.36;nan;-18865.84;5031943;28;20646;-65
2023/12/19 04:02:09;;;;;;;1.00;1.00;;;;;;;3.54;nan;-18869.47;5031693;28;20658;-64
2023/12/19 04:04:35;;;;;;;1.10;1.10;;;;;;;3.72;nan;-18557.44;5031389;28;20290;-66
2023/12/19 04:07:00;;;;;;;1.20;1.20;;;;;;;3.72;nan;-18241.81;5032212;28;20262;-66
2023/12/19 04:09:26;;;;;;;1.50;1.40;;;;;;;3.79;nan;-17927.56;5031789;28;20175;-64
2023/12/19 04:11:51;;;;;;;1.40;1.37;;;;;;;3.49;nan;-17922.06;5031651;28;20191;-63
2023/12/19 04:14:17;;;;;;;1.20;1.20;;;;;;;3.55;nan;-17607.50;5031757;28;20310;-64
2023/12/19 04:16:42;;;;;;;1.70;1.60;;;;;;;3.61;nan;-18239.78;5031492;28;20172;-66
2023/12/19 04:19:08;;;;;;;1.30;1.20;;;;;;;3.42;nan;-18551.63;5031368;28;20179;-65
2023/12/19 04:21:33;;;;;;;1.30;1.30;;;;;;;3.43;nan;-18551.81;5031266;28;20175;-65
2023/12/19 04:23:59;;;;;;;1.20;1.20;;;;;;;3.61;nan;-18870.78;5030730;28;20214;-64
2023/12/19 04:26:24;;;;;;;1.77;1.67;;;;;;;3.63;nan;-18555.66;5031619;28;20190;-66
2023/12/19 04:28:49;;;;;;;1.50;1.40;;;;;;;3.51;nan;-18868.88;5031206;28;20203;-63
2023/12/19 04:31:15;;;;;;;1.27;1.27;;;;;;;3.44;nan;-18867.56;5030912;28;20223;-64
2023/12/19 04:33:40;;;;;;;1.50;1.40;;;;;;;3.58;nan;-18239.22;5030992;28;20266;-63
2023/12/19 04:36:07;;;;;;;2.00;1.83;;;;;;;3.70;nan;-18241.53;5031351;28;20175;-66
2023/12/19 04:38:33;;;;;;;1.83;1.73;;;;;;;3.51;nan;-18237.97;5031428;28;20182;-65
2023/12/19 04:40:58;;;;;;;1.37;1.27;;;;;;;3.74;nan;-17926.53;5031344;28;20568;-65
2023/12/19 04:43:24;;;;;;;1.10;1.10;;;;;;;3.74;nan;-18242.19;5031445;28;20217;-65
2023/12/19 04:45:50;;;;;;;1.17;1.17;;;;;;;3.62;nan;-18555.56;5031071;28;20171;-64
2023/12/19 04:48:16;;;;;;;1.50;1.30;;;;;;;3.66;nan;-18556.25;5031148;28;20524;-68
2023/12/19 04:50:41;;;;;;;1.50;1.40;;;;;;;3.64;nan;-18871.41;5031306;28;20653;-66
2023/12/19 04:53:07;;;;;;;1.33;1.27;;;;;;;3.35;nan;-18865.75;5031115;28;20245;-66
2023/12/19 04:55:33;;;;;;;1.30;1.30;;;;;;;3.35;nan;-19181.13;5031247;28;20163;-65
2023/12/19 04:57:59;;;;;;;2.00;1.80;;;;;;;3.63;nan;-19186.72;5030748;28;20251;-63
2023/12/19 05:00:24;;;;;;;2.23;1.67;;;;;;;3.49;nan;-18553.00;5030697;28;20203;-65
2023/12/19 05:02:49;;;;;;;1.47;1.37;;;;;;;3.59;nan;-18870.50;5030542;28;20624;-62
2023/12/19 05:05:15;;;;;;;1.10;1.10;;;;;;;3.36;nan;-19181.31;5031042;28;20245;-65
2023/12/19 05:07:40;;;;;;;1.10;1.10;;;;;;;3.68;nan;-18872.31;5029614;28;20505;-62
2023/12/19 05:10:06;;;;;;;1.90;1.43;;;;;;;3.54;nan;-18869.59;5030873;28;20179;-65
2023/12/19 05:12:31;;;;;;;1.80;1.70;;;;;;;3.14;nan;-19492.00;5030604;28;20557;-66
2023/12/19 05:14:57;;;;;;;1.10;1.10;;;;;;;3.11;nan;-19491.34;5029432;28;20175;-62
2023/12/19 05:17:22;;;;;;;1.90;1.57;;;;;;;3.19;nan;-19177.69;5029367;28;20202;-65
2023/12/19 05:19:47;;;;;;;1.57;1.47;;;;;;;3.39;nan;-19181.84;5030265;28;20266;-63
2023/12/19 05:22:13;;;;;;;1.10;1.10;;;;;;;3.41;nan;-19497.72;5030466;28;20244;-65
2023/12/19 05:24:41;;;;;;;1.20;1.20;;;;;;;3.37;nan;-19496.88;5030266;28;20203;-64
2023/12/19 05:27:06;;;;;;;1.10;1.10;;;;;;;3.26;nan;-19809.81;5030255;28;20179;-63
2023/12/19 05:29:32;;;;;;;1.90;1.73;;;;;;;3.27;nan;-19810.03;5030249;28;20662;-64
2023/12/19 05:31:58;;;;;;;1.20;1.20;;;;;;;3.29;nan;-19495.06;5030093;28;20268;-64
2023/12/19 05:34:23;;;;;;;1.50;1.40;;;;;;;3.22;nan;-19178.44;5029242;28;20688;-65
2023/12/19 05:36:48;;;;;;;1.40;1.30;;;;;;;3.13;nan;-19176.56;5029958;28;20172;-65
2023/12/19 05:39:15;;;;;;;1.40;1.30;;;;;;;3.23;nan;-19178.53;5030230;28;20279;-67
2023/12/19 05:41:41;;;;;;;1.93;1.80;;;;;;;3.14;nan;-19176.78;5030258;28;20669;-63
2023/12/19 05:44:06;;;;;;;1.50;1.40;;;;;;;3.26;nan;-19494.53;5030266;28;20199;-66
2023/12/19 05:46:32;;;;;;;1.10;1.10;;;;;;;3.17;nan;-19492.63;5029714;28;20245;-65
2023/12/19 05:48:57;;;;;;;2.00;1.47;;;;;;;2.96;nan;-19803.38;5030035;28;20517;-64
2023/12/19 05:51:23;;;;;;;1.33;1.20;;;;;;;2.94;nan;-19802.94;5030402;28;20171;-67
2023/12/19 05:53:49;;;;;;;1.53;1.43;;;;;;;3.09;nan;-20121.25;5030504;28;20167;-68
2023/12/19 05:56:14;;;;;;;2.90;1.63;;;;;;;2.93;nan;-19802.63;5030010;28;20168;-63
2023/12/19 05:58:40;;;;;;;1.40;1.30;;;;;;;3.15;nan;-19807.41;5030576;28;20500;-66
2023/12/19 06:01:05;;;;;;;1.40;1.33;;;;;;;2.96;nan;-19803.28;5030375;28;20206;-66
2023/12/19 06:03:30;;;;;;;1.17;1.17;;;;;;;3.24;nan;-19494.13;5030304;28;20199;-66
2023/12/19 06:05:56;;;;;;;1.10;1.10;;;;;;;3.23;nan;-19178.53;5030817;28;20179;-64
2023/12/19 06:08:22;;;;;;;1.60;1.50;;;;;;;3.35;nan;-19181.13;5030291;28;20180;-66
2023/12/19 06:10:48;;;;;;;1.37;1.33;;;;;;;3.35;nan;-19181.13;5031301;28;20171;-65
2023/12/19 06:13:14;;;;;;;1.17;1.17;;;;;;;3.57;nan;-19185.56;5033846;28;20167;-66
2023/12/19 06:15:40;;;;;;;1.20;1.20;;;;;;;3.62;nan;-18555.47;5033214;28;20172;-68
2023/12/19 06:18:05;;;;;;;2.27;2.07;;;;;;;3.54;nan;-17922.91;5032808;28;20717;-67
2023/12/19 06:20:31;;;;;;;1.27;1.23;;;;;;;3.84;nan;-17928.47;5033573;28;20217;-67
2023/12/19 06:22:56;;;;;;;1.47;1.30;;;;;;;3.98;nan;-17615.19;5032955;28;20182;-64
2023/12/19 06:25:22;;;;;;;1.50;1.40;;;;;;;4.01;nan;-17931.56;5033430;28;20180;-67
2023/12/19 06:27:47;;;;;;;1.40;1.30;;;;;;;3.96;nan;-18246.41;5033011;28;20546;-68
2023/12/19 06:30:13;;;;;;;1.60;1.50;;;;;;;4.17;nan;-15722.41;5033243;28;20265;-68
2023/12/19 06:32:40;;;;;;;1.60;1.50;;;;;;;4.31;nan;-15724.50;5032726;28;20253;-68
2023/12/19 06:35:07;;;;;;;1.97;1.37;;;;;;;4.39;nan;-15725.75;5032856;28;20234;-66
2023/12/19 06:37:34;;;;;;;1.40;1.33;;;;;;;4.65;nan;-14147.38;5033109;28;20178;-67
2023/12/19 06:39:59;;;;;;;1.10;1.10;;;;;;;4.79;nan;-12565.72;5032831;28;20176;-68
2023/12/19 06:42:25;;;;;;;1.30;1.27;;;;;;;4.68;nan;-11614.50;5032939;28;20638;-66
2023/12/19 06:44:50;;;;;;;1.03;1.03;;;;;;;4.96;nan;-11299.78;5032459;28;20207;-69
2023/12/19 06:47:16;;;;;;;1.57;1.47;;;;;;;4.77;nan;-11932.03;5032654;28;20225;-66
2023/12/19 06:49:43;;;;;;;2.87;1.87;;;;;;;4.94;nan;-13200.75;5032683;28;20545;-66
2023/12/19 06:52:09;;;;;;;4.47;2.50;;;;;;;5.05;nan;-13835.50;5032676;28;20211;-66
2023/12/19 06:54:38;;;;;;;1.47;1.37;;;;;;;4.89;nan;-13516.97;5032684;28;20566;-67
2023/12/19 06:57:04;;;;;;;1.60;1.50;;;;;;;5.32;nan;-10668.13;5032977;28;20195;-67
2023/12/19 06:59:32;;;;;;;1.63;1.53;;;;;;;5.46;nan;-10034.41;5032310;28;20177;-66
2023/12/19 07:01:58;;;;;;;1.67;1.57;;;;;;;5.65;nan;-8765.47;5031605;28;20651;-65
2023/12/19 07:04:23;;;;;;;1.93;1.83;;;;;;;5.65;nan;-8447.88;5032024;28;20306;-66
2023/12/19 07:06:48;;;;;;;1.57;1.47;;;;;;;5.57;nan;-9082.72;5032457;28;20548;-66
2023/12/19 07:09:14;;;;;;;1.57;1.47;;;;;;;5.94;nan;-6859.63;5030725;28;20198;-68
2023/12/19 07:11:41;;;;;;;1.70;1.60;;;;;;;5.94;nan;-7813.16;5031912;28;20178;-66
2023/12/19 07:14:06;;;;;;;1.83;1.70;;;;;;;5.95;nan;-8130.97;5032299;28;20289;-64
2023/12/19 07:16:32;;;;;;;3.40;1.67;;;;;;;5.96;nan;-9084.19;5032490;28;20168;-64
2023/12/19 07:18:57;;;;;;;1.20;1.20;;;;;;;6.24;nan;-10674.03;5032250;28;20274;-65
2023/12/19 07:21:24;;;;;;;1.67;1.40;;;;;;;6.20;nan;-9720.69;5031522;28;20179;-67
2023/12/19 07:23:53;;;;;;;1.10;1.10;;;;;;;6.37;nan;-9085.75;5032240;28;20241;-65
2023/12/19 07:26:22;;;;;;;1.20;1.20;;;;;;;6.29;nan;-7495.78;5031956;28;20187;-64
2023/12/19 07:28:49;;;;;;;1.90;1.57;;;;;;;6.35;nan;-7177.78;5031770;28;20283;-66
2023/12/19 07:31:22;;;;;;;1.20;1.20;;;;;;;6.50;nan;-8450.25;5031864;28;20710;-66
2023/12/19 07:33:47;;;;;;;1.93;1.83;;;;;;;6.78;nan;-5586.19;5031344;28;20180;-66
2023/12/19 07:36:13;;;;;;;1.27;1.27;;;;;;;6.74;nan;-2400.41;5031748;28;20176;-66
2023/12/19 07:38:39;;;;;;;1.43;1.33;;;;;;;7.08;nan;-1760.00;5031932;28;20172;-65
2023/12/19 07:41:04;;;;;;;5.67;1.43;;;;;;;7.25;nan;-801.31;5031812;28;20206;-65
2023/12/19 07:43:31;;;;;;;1.87;1.77;;;;;;;7.13;nan;-1440.63;5031729;28;20214;-66
2023/12/19 07:45:57;;;;;;;1.17;1.17;;;;;;;7.31;nan;-2077.25;5032059;28;20180;-67
2023/12/19 07:48:22;;;;;;;1.50;1.40;;;;;;;7.45;nan;-3352.47;5030696;28;20224;-65
2023/12/19 07:50:48;;;;;;;1.30;1.20;;;;;;;7.45;nan;-2395.25;5031001;28;20175;-66
2023/12/19 07:53:13;;;;;;;1.50;1.40;;;;;;;7.64;nan;-1116.84;5030985;28;20296;-65
2023/12/19 07:55:39;;;;;;;1.47;1.37;;;;;;;7.88;nan;-475.56;5030806;28;20190;-66
2023/12/19 07:58:06;;;;;;;1.47;1.37;;;;;;;8.04;nan;-154.38;5030750;28;20630;-64
2023/12/19 08:00:33;;;;;;;2.60;1.90;;;;;;;8.06;nan;-793.38;5030699;28;20318;-64
2023/12/19 08:02:58;;;;;;;1.50;1.40;;;;;;;8.17;nan;-1111.91;5030670;28;20171;-66
2023/12/19 08:05:23;;;;;;;2.03;1.77;;;;;;;8.46;nan;-469.63;5030722;28;20183;-65
2023/12/19 08:07:49;;;;;;;1.20;1.20;;;;;;;8.46;nan;1769.97;5030917;28;20174;-67
2023/12/19 08:10:15;;;;;;;1.70;1.60;;;;;;;8.73;nan;6900.75;5030863;28;20167;-67
2023/12/19 08:12:40;;;;;;;1.50;1.40;;;;;;;8.71;nan;10108.63;5030906;28;20206;-66
2023/12/19 08:15:06;;;;;;;2.05;1.80;;;;;;;8.71;nan;14605.69;5031176;28;20175;-66
2023/12/19 08:17:32;;;;;;;1.40;1.30;;;;;;;8.76;nan;13964.63;5031228;28;20179;-66
2023/12/19 08:19:57;;;;;;;2.08;1.90;;;;;;;9.00;nan;17511.28;5030471;28;20205;-64
2023/12/19 08:22:23;;;;;;;1.45;1.35;;;;;;;9.18;nan;22673.88;5030461;28;20183;-66
2023/12/19 08:24:49;;;;;;;1.83;1.73;;;;;;;9.14;nan;24929.47;5030859;28;20285;-65
2023/12/19 08:27:15;;;;;;;1.30;1.20;;;;;;;9.23;nan;23643.66;5030811;28;20643;-65
2023/12/19 08:29:41;;;;;;;1.33;1.23;;;;;;;9.25;nan;23967.28;5030877;28;20171;-66
2023/12/19 08:32:06;;;;;;;1.70;1.60;;;;;;;9.55;nan;26888.59;5029049;28;20227;-65
2023/12/19 08:34:31;;;;;;;2.05;1.95;;;;;;;9.46;nan;28499.28;5030123;28;20198;-65
2023/12/19 08:36:57;;;;;;;1.55;1.45;;;;;;;9.74;nan;30455.84;5030864;28;20159;-67
2023/12/19 08:39:22;;;;;;;1.80;1.65;;;;;;;9.75;nan;31103.56;5030639;28;20166;-65
2023/12/19 08:41:48;;;;;;;1.85;1.50;;;;;;;9.87;nan;34024.78;5030591;28;20163;-65
2023/12/19 08:44:14;;;;;;;1.20;1.20;;;;;;;9.88;nan;37914.78;5030587;28;20187;-65
2023/12/19 08:46:39;;;;;;;1.20;1.13;;;;;;;9.87;nan;38238.72;5030771;28;20183;-65
2023/12/19 08:49:05;;;;;;;1.10;1.10;;;;;;;10.14;nan;49583.84;5030442;28;20172;-66
2023/12/19 08:51:31;;;;;;;1.95;1.85;;;;;;;10.07;nan;49918.09;5030419;28;20172;-68
2023/12/19 08:53:57;;;;;;;1.35;1.25;;;;;;;10.12;nan;50955.69;5030247;28;20187;-66
2023/12/19 08:56:22;;;;;;;1.10;1.10;;;;;;;10.10;nan;49915.81;5030335;28;20180;-67
2023/12/19 08:58:49;;;;;;;1.13;1.13;;;;;;;10.10;nan;49958.59;5030671;28;20167;-66
2023/12/19 09:01:14;;;;;;;1.50;1.40;;;;;;;10.02;nan;49132.22;5030338;28;20176;-65
2023/12/19 09:03:40;;;;;;;1.75;1.65;;;;;;;10.25;nan;49949.88;5030812;28;20191;-68
2023/12/19 09:06:06;;;;;;;1.10;1.10;;;;;;;10.25;nan;48535.13;5030573;28;20229;-66
2023/12/19 09:08:32;;;;;;;1.17;1.13;;;;;;;10.22;nan;51313.47;5030433;28;20163;-67
2023/12/19 09:10:58;;;;;;;1.13;1.13;;;;;;;10.48;nan;51784.22;5030458;28;20734;-66
2023/12/19 09:13:23;;;;;;;1.45;1.35;;;;;;;10.62;nan;51960.41;5030199;28;20167;-66
2023/12/19 09:15:48;;;;;;;1.10;1.10;;;;;;;10.59;nan;55092.38;5030462;28;20274;-66
2023/12/19 09:18:14;;;;;;;0.90;0.90;;;;;;;10.28;nan;55407.06;5030387;28;20284;-67
2023/12/19 09:20:39;;;;;;;1.20;1.20;;;;;;;10.82;nan;56615.53;5030002;28;20605;-67
2023/12/19 09:23:05;;;;;;;4.28;1.27;;;;;;;10.97;nan;55761.16;5029348;28;20210;-66
2023/12/19 09:25:30;;;;;;;1.23;1.23;;;;;;;10.89;nan;56027.88;5030023;28;20176;-66
2023/12/19 09:27:56;;;;;;;1.02;1.02;;;;;;;11.02;nan;56830.63;5029937;28;20620;-66
2023/12/19 09:30:23;;;;;;;1.55;1.10;;;;;;;10.95;nan;57160.16;5030089;28;20223;-68
2023/12/19 09:32:48;;;;;;;2.70;2.35;;;;;;;11.29;nan;57151.81;5030130;28;20643;-67
2023/12/19 09:35:14;;;;;;;1.00;1.00;;;;;;;11.36;nan;57141.41;5030345;28;20178;-65
2023/12/19 09:37:40;;;;;;;1.50;1.38;;;;;;;11.22;nan;57489.69;5029905;28;20614;-66
2023/12/19 09:40:16;;;;;;;1.10;1.10;;;;;;;11.59;nan;59227.97;5030061;28;20172;-65
2023/12/19 09:42:42;;;;;;;2.05;1.25;;;;;;;11.51;nan;59385.91;5030090;28;20345;-65
2023/12/19 09:45:08;;;;;;;0.93;0.93;;;;;;;11.86;nan;59874.16;5029349;28;20745;-66
2023/12/19 09:47:40;;;;;;;1.40;1.30;;;;;;;11.91;nan;60007.63;5032021;28;20164;-64
2023/12/19 09:50:12;;;;;;;1.08;0.98;;;;;;;12.05;nan;60089.72;5032065;28;20159;-73
2023/12/19 09:52:38;;;;;;;1.15;1.08;;;;;;;11.80;nan;59688.44;5031834;28;20199;-70
2023/12/19 09:55:04;;;;;;;1.05;1.05;;;;;;;12.06;nan;59791.41;5031828;28;20183;-71
2023/12/19 09:57:33;;;;;;;1.10;1.10;;;;;;;12.07;nan;59859.03;5032333;28;20167;-72
2023/12/19 10:00:07;;;;;;;2.17;1.60;;;;;;;12.12;nan;59821.06;5031811;28;20199;-72
2023/12/19 10:02:32;;;;;;;2.55;1.30;;;;;;;12.35;nan;59836.31;5033626;28;20168;-72
2023/12/19 10:04:58;;;;;;;0.95;0.95;;;;;;;12.19;nan;59818.59;5032434;28;20207;-70
2023/12/19 10:07:23;;;;;;;1.08;1.00;;;;;;;12.37;nan;59915.34;5034364;28;20608;-71
2023/12/19 10:09:56;;;;;;;1.75;1.13;;;;;;;12.29;nan;59916.16;5034051;28;20254;-72
2023/12/19 10:12:22;;;;;;;1.23;1.20;;;;;;;12.40;nan;59829.03;5034169;28;20246;-70
2023/12/19 10:14:48;;;;;;;1.30;1.20;;;;;;;12.29;nan;59985.28;5033863;28;20175;-70
2023/12/19 10:17:15;;;;;;;0.95;0.95;;;;;;;12.40;nan;59839.28;5033914;28;20186;-71
2023/12/19 10:19:41;;;;;;;1.30;1.20;;;;;;;12.64;nan;59767.41;5033523;28;20201;-71
2023/12/19 10:22:08;;;;;;;1.40;1.30;;;;;;;12.58;nan;59806.88;5034159;28;20172;-70
2023/12/19 10:24:34;;;;;;;1.63;1.52;;;;;;;12.79;nan;59782.03;5033893;28;20283;-72
2023/12/19 10:27:07;;;;;;;1.85;1.15;;;;;;;12.76;nan;59844.75;5033900;28;20513;-69
2023/12/19 10:29:36;;;;;;;1.25;1.20;;;;;;;12.87;nan;59887.69;5033507;28;20179;-71
2023/12/19 10:32:16;;;;;;;1.42;1.33;;;;;;;12.81;nan;59998.91;5033517;28;20292;-71
2023/12/19 10:34:57;;;;;;;1.20;1.10;;;;;;;13.03;nan;60043.28;5034022;28;20179;-70
2023/12/19 10:37:27;;;;;;;1.30;1.20;;;;;;;12.94;nan;60154.31;5033830;28;20184;-71
2023/12/19 10:40:09;;;;;;;2.05;1.88;;;;;;;13.17;nan;60192.75;5038763;28;20174;-70
2023/12/19 10:42:35;;;;;;;1.30;1.05;;;;;;;13.13;nan;60106.25;5031167;28;20183;-70
2023/12/19 10:45:03;;;;;;;1.15;1.08;;;;;;;13.27;nan;60203.31;5031581;28;20219;-70
2023/12/19 10:47:29;;;;;;;1.05;1.05;;;;;;;13.15;nan;60487.94;5031551;28;20175;-68
2023/12/19 10:49:54;;;;;;;1.20;1.15;;;;;;;13.54;nan;60584.34;5033066;28;20171;-69
2023/12/19 10:52:24;;;;;;;1.00;1.00;;;;;;;13.71;nan;60770.19;5033031;28;20635;-70
2023/12/19 10:54:56;;;;;;;1.23;1.20;;;;;;;13.75;nan;60915.88;5031335;28;20186;-70
2023/12/19 10:57:26;;;;;;;1.17;1.17;;;;;;;13.83;nan;60844.72;5031894;28;20167;-69
2023/12/19 11:00:10;;;;;;;2.25;0.95;;;;;;;13.94;nan;60846.81;5032487;28;20258;-68
2023/12/19 11:02:39;;;;;;;1.55;1.45;;;;;;;13.91;nan;60903.06;5045292;28;20174;-71
2023/12/19 11:05:28;;;;;;;2.38;1.20;;;;;;;13.97;nan;60927.22;5032267;28;20744;-69
2023/12/19 11:07:58;;;;;;;1.20;1.10;;;;;;;14.23;nan;60995.03;5032457;28;20175;-69
2023/12/19 11:10:24;;;;;;;1.13;1.13;;;;;;;14.06;nan;60994.41;5032849;28;20164;-69
2023/12/19 11:12:51;;;;;;;1.77;1.45;;;;;;;14.20;nan;61037.31;5031085;28;20571;-70
2023/12/19 11:15:17;;;;;;;1.10;1.10;;;;;;;14.12;nan;61078.22;5032248;28;20179;-70
2023/12/19 11:17:43;;;;;;;1.35;1.25;;;;;;;14.21;nan;61116.06;5032548;28;20178;-70
2023/12/19 11:20:24;;;;;;;1.20;1.20;;;;;;;14.16;nan;61182.34;5032207;28;20254;-69
2023/12/19 11:23:22;;;;;;;1.00;1.00;;;;;;;14.22;nan;61234.81;5030931;28;20225;-70
2023/12/19 11:25:55;;;;;;;1.40;1.30;;;;;;;14.27;nan;61222.47;5029954;28;20321;-69
2023/12/19 11:28:20;;;;;;;1.00;1.00;;;;;;;14.35;nan;61214.09;5031213;28;20168;-71
2023/12/19 11:30:45;;;;;;;1.10;1.02;;;;;;;14.33;nan;61147.03;5031931;28;20215;-72
2023/12/19 11:33:13;;;;;;;1.77;1.63;;;;;;;14.59;nan;61176.97;5031504;28;20254;-71
2023/12/19 11:35:39;;;;;;;1.08;1.02;;;;;;;14.48;nan;61182.53;5031668;28;20538;-70
2023/12/19 11:38:14;;;;;;;1.00;1.00;;;;;;;14.51;nan;61185.38;5030535;28;20229;-70
2023/12/19 11:40:45;;;;;;;1.17;1.17;;;;;;;14.54;nan;61368.69;5031251;28;20179;-70
2023/12/19 11:43:31;;;;;;;1.00;1.00;;;;;;;14.62;nan;61272.34;5035144;28;20207;-69
2023/12/19 11:46:02;;;;;;;1.10;1.10;;;;;;;14.61;nan;61193.53;5023979;28;20266;-69
2023/12/19 11:48:44;;;;;;;1.55;1.45;;;;;;;14.42;nan;61190.63;5031762;28;20190;-70